Time;durP1;ratioP1;P1;durP2;ratioP2;P2;SDS_P1;SDS_P2;PMS_P1;PMS_P2;Temp;Humidity;BMP_temperature;BMP_pressure;BME280_temperature;BME280_humidity;BME280_pressure;Samples;Min_cycle;Max_cycle;Signal;HPM_P1;HPM_P2
2024/01/03 00:00:14;;;;;;;8.47;3.77;;;11.60;99.90;;;;;;5039186;28;20245;-72
2024/01/03 00:02:41;;;;;;;6.10;3.87;;;11.60;99.90;;;;;;5036900;28;20230;-72
2024/01/03 00:05:09;;;;;;;11.10;4.27;;;11.50;99.90;;;;;;5050080;28;20364;-73
2024/01/03 00:07:34;;;;;;;11.73;5.03;;;11.40;99.90;;;;;;5020551;28;20229;-72
2024/01/03 00:10:00;;;;;;;10.57;6.37;;;11.40;99.90;;;;;;5034634;28;20638;-72
2024/01/03 00:12:26;;;;;;;22.43;20.70;;;11.30;99.90;;;;;;5035102;28;20250;-73
2024/01/03 00:14:52;;;;;;;7.03;4.23;;;11.30;99.90;;;;;;5034332;28;20399;-72
2024/01/03 00:17:20;;;;;;;28.50;26.33;;;11.30;99.90;;;;;;5034351;28;20183;-71
2024/01/03 00:19:53;;;;;;;7.77;4.63;;;11.20;99.90;;;;;;5051278;28;20178;-71
2024/01/03 00:22:18;;;;;;;7.93;4.10;;;11.20;99.90;;;;;;5053786;28;20214;-71
2024/01/03 00:24:48;;;;;;;13.40;4.17;;;11.10;99.90;;;;;;5035890;28;20183;-71
2024/01/03 00:27:15;;;;;;;9.13;4.30;;;11.00;99.90;;;;;;5042515;28;20171;-72
2024/01/03 00:29:56;;;;;;;6.87;3.83;;;11.00;99.90;;;;;;5033829;28;20536;-72
2024/01/03 00:32:23;;;;;;;8.33;3.97;;;11.00;99.90;;;;;;5035074;28;20183;-72
2024/01/03 00:34:49;;;;;;;9.43;6.37;;;11.00;99.90;;;;;;5035128;28;20526;-72
2024/01/03 00:37:23;;;;;;;6.20;4.13;;;11.00;99.90;;;;;;5051786;28;20589;-70
2024/01/03 00:39:49;;;;;;;13.23;4.13;;;11.10;99.90;;;;;;5035500;28;20250;-72
2024/01/03 00:42:15;;;;;;;6.27;3.80;;;11.20;99.90;;;;;;5049343;28;20697;-71
2024/01/03 00:44:41;;;;;;;12.57;11.17;;;11.10;99.90;;;;;;5053713;28;20225;-72
2024/01/03 00:47:07;;;;;;;8.97;4.40;;;11.10;99.90;;;;;;5037113;28;20170;-73
2024/01/03 00:49:33;;;;;;;11.60;4.00;;;11.10;99.90;;;;;;5053300;28;20171;-73
2024/01/03 00:52:01;;;;;;;5.80;3.97;;;11.10;99.90;;;;;;5053352;28;20216;-73
2024/01/03 00:54:28;;;;;;;11.70;4.27;;;11.20;99.90;;;;;;5054254;28;20171;-73
2024/01/03 00:56:54;;;;;;;8.13;4.50;;;11.10;99.90;;;;;;5044170;28;20176;-74
2024/01/03 00:59:20;;;;;;;4.23;3.70;;;11.10;99.90;;;;;;5035293;28;20183;-73
2024/01/03 01:01:47;;;;;;;8.00;3.50;;;11.10;99.90;;;;;;5042998;28;20204;-72
2024/01/03 01:04:13;;;;;;;54.30;51.43;;;11.10;99.90;;;;;;5052949;28;20175;-73
2024/01/03 01:06:42;;;;;;;8.63;4.17;;;11.20;99.90;;;;;;5041685;28;20227;-72
2024/01/03 01:09:08;;;;;;;5.40;3.13;;;11.20;99.90;;;;;;5042449;28;20616;-73
2024/01/03 01:11:35;;;;;;;10.50;9.43;;;11.10;99.90;;;;;;5038419;28;20182;-73
2024/01/03 01:14:00;;;;;;;42.10;40.00;;;11.10;99.90;;;;;;5053515;28;20664;-73
2024/01/03 01:16:26;;;;;;;14.13;13.23;;;11.10;99.90;;;;;;5048571;28;20199;-71
2024/01/03 01:18:51;;;;;;;26.83;25.17;;;11.20;99.90;;;;;;5032670;28;20184;-71
2024/01/03 01:21:17;;;;;;;5.93;4.97;;;11.20;99.90;;;;;;5041787;28;20574;-71
2024/01/03 01:23:42;;;;;;;8.63;7.00;;;11.10;99.90;;;;;;5041752;28;20741;-70
2024/01/03 01:26:09;;;;;;;4.87;2.90;;;11.00;99.90;;;;;;5034331;28;20707;-71
2024/01/03 01:28:35;;;;;;;4.93;3.57;;;11.00;99.90;;;;;;5047098;28;20233;-70
2024/01/03 01:31:01;;;;;;;20.93;19.80;;;11.00;99.90;;;;;;5033577;28;20179;-71
2024/01/03 01:33:26;;;;;;;5.07;3.00;;;11.00;99.90;;;;;;5033164;28;20191;-71
2024/01/03 01:35:52;;;;;;;9.67;8.83;;;11.10;99.90;;;;;;5036921;28;20606;-72
2024/01/03 01:38:18;;;;;;;3.73;3.43;;;11.00;99.90;;;;;;5048553;28;20185;-70
2024/01/03 01:40:48;;;;;;;4.00;3.20;;;11.00;99.90;;;;;;5042361;28;20187;-70
2024/01/03 01:43:14;;;;;;;5.17;3.70;;;11.00;99.90;;;;;;5046397;28;20236;-71
2024/01/03 01:45:39;;;;;;;9.93;9.13;;;11.00;99.90;;;;;;5041310;28;20599;-71
2024/01/03 01:48:06;;;;;;;5.70;3.67;;;11.00;99.90;;;;;;5047399;28;20243;-69
2024/01/03 01:50:32;;;;;;;6.33;5.20;;;11.10;99.90;;;;;;5040836;28;20184;-70
2024/01/03 01:52:58;;;;;;;16.97;15.87;;;11.10;99.90;;;;;;5032981;28;20206;-70
2024/01/03 01:55:24;;;;;;;6.63;4.07;;;11.10;99.90;;;;;;5032633;28;20183;-71
2024/01/03 01:57:51;;;;;;;5.37;3.80;;;11.10;99.90;;;;;;5033256;28;20175;-71
2024/01/03 02:00:17;;;;;;;5.63;4.90;;;11.10;99.90;;;;;;5032512;28;20183;-70
2024/01/03 02:02:46;;;;;;;5.47;3.40;;;11.20;99.90;;;;;;5032396;28;20570;-71
2024/01/03 02:05:13;;;;;;;4.07;3.27;;;11.30;99.90;;;;;;5037984;28;20199;-70
2024/01/03 02:07:39;;;;;;;5.33;3.40;;;11.20;99.90;;;;;;5037159;28;20618;-70
2024/01/03 02:10:06;;;;;;;7.67;4.20;;;11.30;99.90;;;;;;5049651;28;20175;-71
2024/01/03 02:12:31;;;;;;;7.30;3.90;;;11.20;99.90;;;;;;5038590;28;20176;-70
2024/01/03 02:14:57;;;;;;;6.93;3.70;;;11.20;99.90;;;;;;5031765;28;20273;-71
2024/01/03 02:17:23;;;;;;;6.40;3.60;;;11.20;99.90;;;;;;5043593;28;20257;-70
2024/01/03 02:19:50;;;;;;;13.77;12.90;;;11.20;99.90;;;;;;5051774;28;20229;-73
2024/01/03 02:22:15;;;;;;;6.70;3.90;;;11.20;99.90;;;;;;5040356;28;20211;-72
2024/01/03 02:24:41;;;;;;;6.73;3.70;;;11.20;99.90;;;;;;5039788;28;20249;-71
2024/01/03 02:27:07;;;;;;;8.10;3.83;;;11.20;99.90;;;;;;5031543;28;20277;-71
2024/01/03 02:29:33;;;;;;;9.03;4.17;;;11.20;99.90;;;;;;5046020;28;20647;-70
2024/01/03 02:31:58;;;;;;;5.50;3.13;;;11.20;99.90;;;;;;5049178;28;20175;-71
2024/01/03 02:34:24;;;;;;;4.07;3.20;;;11.10;99.90;;;;;;5036306;28;20184;-70
2024/01/03 02:36:54;;;;;;;4.63;3.70;;;11.10;99.90;;;;;;5048141;28;20210;-71
2024/01/03 02:39:19;;;;;;;4.97;3.50;;;10.90;99.90;;;;;;5034330;28;20182;-70
2024/01/03 02:41:45;;;;;;;6.90;3.73;;;10.80;99.90;;;;;;5047632;28;20207;-71
2024/01/03 02:44:11;;;;;;;3.90;3.50;;;10.70;99.90;;;;;;5032296;28;20179;-71
2024/01/03 02:46:36;;;;;;;6.27;3.63;;;10.70;99.90;;;;;;5048422;28;20210;-73
2024/01/03 02:49:02;;;;;;;3.90;3.60;;;10.70;99.90;;;;;;5031441;28;20545;-71
2024/01/03 02:51:28;;;;;;;5.37;3.53;;;10.80;99.90;;;;;;5031826;28;20254;-71
2024/01/03 02:53:53;;;;;;;5.00;3.73;;;10.80;99.90;;;;;;5013479;28;20206;-71
2024/01/03 02:56:19;;;;;;;4.40;3.47;;;10.90;99.90;;;;;;5045006;28;20202;-71
2024/01/03 02:58:45;;;;;;;8.43;3.50;;;10.90;99.90;;;;;;5048489;28;20182;-71
2024/01/03 03:01:11;;;;;;;4.33;3.20;;;10.90;99.90;;;;;;5039485;28;20309;-71
2024/01/03 03:03:37;;;;;;;4.50;3.53;;;10.90;99.90;;;;;;5049466;28;20175;-70
2024/01/03 03:06:03;;;;;;;6.53;3.30;;;10.90;99.90;;;;;;5040394;28;20199;-70
2024/01/03 03:08:29;;;;;;;5.13;3.20;;;10.90;99.90;;;;;;5046244;28;20630;-72
2024/01/03 03:10:54;;;;;;;3.70;3.20;;;10.90;99.90;;;;;;5033955;28;20183;-71
2024/01/03 03:13:20;;;;;;;6.47;3.33;;;10.90;99.90;;;;;;5045608;28;20187;-71
2024/01/03 03:15:46;;;;;;;4.73;4.13;;;10.90;99.90;;;;;;5021346;28;20202;-70
2024/01/03 03:18:12;;;;;;;5.20;4.80;;;10.80;99.90;;;;;;5021919;28;20216;-71
2024/01/03 03:20:38;;;;;;;4.63;3.70;;;10.90;99.90;;;;;;5030967;28;20174;-70
2024/01/03 03:23:04;;;;;;;3.53;3.27;;;10.90;99.90;;;;;;5041257;28;20548;-71
2024/01/03 03:25:29;;;;;;;6.23;3.20;;;10.90;99.90;;;;;;5019664;28;20191;-71
2024/01/03 03:27:55;;;;;;;5.63;3.40;;;10.80;99.90;;;;;;5047129;28;20174;-72
2024/01/03 03:30:21;;;;;;;8.30;3.73;;;10.80;99.90;;;;;;5034776;28;20179;-71
2024/01/03 03:32:47;;;;;;;7.10;3.97;;;10.60;99.90;;;;;;5049258;28;20187;-73
2024/01/03 03:35:13;;;;;;;7.73;5.00;;;10.60;99.90;;;;;;5050881;28;20508;-71
2024/01/03 03:37:39;;;;;;;5.80;3.63;;;10.50;99.90;;;;;;5047058;28;20189;-71
2024/01/03 03:40:06;;;;;;;4.93;3.57;;;10.50;99.90;;;;;;5030985;28;20186;-73
2024/01/03 03:42:31;;;;;;;8.83;4.00;;;10.40;99.90;;;;;;5046042;28;20572;-72
2024/01/03 03:44:57;;;;;;;4.60;3.60;;;10.40;99.90;;;;;;5037068;28;20199;-72
2024/01/03 03:47:22;;;;;;;5.60;4.70;;;10.40;99.90;;;;;;5039066;28;20175;-71
2024/01/03 03:49:48;;;;;;;8.73;4.17;;;10.40;99.90;;;;;;5051285;28;20209;-72
2024/01/03 03:52:13;;;;;;;10.97;4.17;;;10.40;99.90;;;;;;5020231;28;20213;-71
2024/01/03 03:54:39;;;;;;;11.47;4.20;;;10.40;99.90;;;;;;5047987;28;20209;-71
2024/01/03 03:57:05;;;;;;;9.43;3.87;;;10.40;99.90;;;;;;5035547;28;20190;-72
2024/01/03 03:59:30;;;;;;;7.60;3.80;;;10.40;99.90;;;;;;5048510;28;20690;-73
2024/01/03 04:01:56;;;;;;;10.40;3.70;;;10.40;99.90;;;;;;5040148;28;20374;-71
2024/01/03 04:04:22;;;;;;;7.47;3.73;;;10.40;99.90;;;;;;5035546;28;20190;-71
2024/01/03 04:06:47;;;;;;;6.07;3.57;;;10.40;99.90;;;;;;5034442;28;20191;-71
2024/01/03 04:09:14;;;;;;;9.23;3.80;;;10.30;99.90;;;;;;5038015;28;20580;-71
2024/01/03 04:11:43;;;;;;;5.77;3.70;;;10.40;99.90;;;;;;5041150;28;20261;-70
2024/01/03 04:14:10;;;;;;;7.57;3.80;;;10.50;99.90;;;;;;5043132;28;20187;-71
2024/01/03 04:16:36;;;;;;;6.70;3.87;;;10.60;99.90;;;;;;5034139;28;20715;-71
2024/01/03 04:19:02;;;;;;;10.30;3.93;;;10.70;99.90;;;;;;5052443;28;20213;-71
2024/01/03 04:21:31;;;;;;;5.07;3.57;;;10.70;99.90;;;;;;5053969;28;20214;-71
2024/01/03 04:23:57;;;;;;;8.10;4.40;;;10.80;99.90;;;;;;5037164;28;20183;-72
2024/01/03 04:26:23;;;;;;;7.03;3.60;;;10.70;99.90;;;;;;5049362;28;20286;-70
2024/01/03 04:28:49;;;;;;;6.27;4.17;;;10.70;99.90;;;;;;5041568;28;20178;-71
2024/01/03 04:31:15;;;;;;;6.13;3.37;;;10.60;99.90;;;;;;5054112;28;20166;-72
2024/01/03 04:33:41;;;;;;;12.63;4.60;;;10.60;99.90;;;;;;5037007;28;20179;-71
2024/01/03 04:36:07;;;;;;;4.77;3.73;;;10.50;99.90;;;;;;5033703;28;20207;-72
2024/01/03 04:38:32;;;;;;;7.07;4.00;;;10.50;99.90;;;;;;5044098;28;20183;-70
2024/01/03 04:40:58;;;;;;;3.83;3.40;;;10.60;99.90;;;;;;5052675;28;20205;-70
2024/01/03 04:43:23;;;;;;;6.27;3.80;;;10.70;99.90;;;;;;5038067;28;20244;-71
2024/01/03 04:45:49;;;;;;;10.73;3.93;;;10.70;99.90;;;;;;5053281;28;20673;-69
2024/01/03 04:48:15;;;;;;;8.60;4.07;;;10.60;99.90;;;;;;5042083;28;20175;-70
2024/01/03 04:50:41;;;;;;;8.53;4.27;;;10.50;99.90;;;;;;5033892;28;20201;-70
2024/01/03 04:53:06;;;;;;;13.13;4.40;;;10.40;99.90;;;;;;5043474;28;20179;-71
2024/01/03 04:55:32;;;;;;;11.93;3.90;;;10.30;99.90;;;;;;5052865;28;20682;-71
2024/01/03 04:57:59;;;;;;;7.47;4.17;;;10.20;99.90;;;;;;5050364;28;20181;-71
2024/01/03 05:00:25;;;;;;;6.20;3.80;;;10.20;99.90;;;;;;5035028;28;20179;-72
2024/01/03 05:02:51;;;;;;;6.93;3.50;;;10.10;99.90;;;;;;5034346;28;20558;-71
2024/01/03 05:05:17;;;;;;;8.13;4.00;;;9.90;99.90;;;;;;5044515;28;20203;-71
2024/01/03 05:07:42;;;;;;;8.47;3.87;;;9.80;99.90;;;;;;5051424;28;20194;-70
2024/01/03 05:10:09;;;;;;;13.43;3.90;;;9.70;99.90;;;;;;5051208;28;20244;-71
2024/01/03 05:12:38;;;;;;;7.07;4.20;;;9.70;99.90;;;;;;5042374;28;20176;-70
2024/01/03 05:15:04;;;;;;;12.03;3.87;;;9.60;99.90;;;;;;5034208;28;20200;-70
2024/01/03 05:17:30;;;;;;;7.30;3.93;;;9.60;99.90;;;;;;5034234;28;20208;-70
2024/01/03 05:19:56;;;;;;;10.33;3.93;;;9.50;99.90;;;;;;5049225;28;20233;-70
2024/01/03 05:22:22;;;;;;;15.70;4.60;;;9.50;99.90;;;;;;5048223;28;20199;-70
2024/01/03 05:24:48;;;;;;;8.10;3.77;;;9.50;99.90;;;;;;5033318;28;20598;-70
2024/01/03 05:27:13;;;;;;;11.87;4.00;;;9.50;99.90;;;;;;5036616;28;20536;-71
2024/01/03 05:29:39;;;;;;;5.43;3.80;;;9.50;99.90;;;;;;5054248;28;20175;-70
2024/01/03 05:32:05;;;;;;;10.07;4.53;;;9.40;99.90;;;;;;5053574;28;20178;-69
2024/01/03 05:34:30;;;;;;;6.43;3.83;;;9.50;99.90;;;;;;5033579;28;20189;-70
2024/01/03 05:36:56;;;;;;;6.03;3.73;;;9.50;99.90;;;;;;5034409;28;20267;-73
2024/01/03 05:39:22;;;;;;;12.13;4.37;;;9.50;99.90;;;;;;5025002;28;20179;-70
2024/01/03 05:41:47;;;;;;;8.93;4.67;;;9.50;99.90;;;;;;5032680;28;20513;-71
2024/01/03 05:44:13;;;;;;;8.63;4.37;;;9.50;99.90;;;;;;5035038;28;20191;-70
2024/01/03 05:46:39;;;;;;;14.63;5.10;;;9.50;99.90;;;;;;5046897;28;20253;-71
2024/01/03 05:49:05;;;;;;;9.23;5.20;;;9.50;99.90;;;;;;5041228;28;20348;-71
2024/01/03 05:51:31;;;;;;;10.23;5.00;;;9.60;99.90;;;;;;5053296;28;20224;-71
2024/01/03 05:53:56;;;;;;;15.20;4.70;;;9.60;99.90;;;;;;5052124;28;20269;-72
2024/01/03 05:56:22;;;;;;;11.50;4.57;;;9.60;99.90;;;;;;5050911;28;20210;-72
2024/01/03 05:58:48;;;;;;;10.40;5.00;;;9.70;99.90;;;;;;5037762;28;20178;-71
2024/01/03 06:01:14;;;;;;;10.70;5.43;;;9.70;99.90;;;;;;5044608;28;20261;-70
2024/01/03 06:03:39;;;;;;;15.27;5.87;;;9.70;99.90;;;;;;5033686;28;20175;-71
2024/01/03 06:06:05;;;;;;;10.10;4.47;;;9.70;99.90;;;;;;5047148;28;20207;-71
2024/01/03 06:08:32;;;;;;;9.03;4.60;;;9.80;99.90;;;;;;5039473;28;20172;-72
2024/01/03 06:10:57;;;;;;;9.80;4.30;;;9.80;99.90;;;;;;5051078;28;20179;-72
2024/01/03 06:13:23;;;;;;;12.47;4.97;;;9.90;99.90;;;;;;5040416;28;20186;-71
2024/01/03 06:15:48;;;;;;;11.33;4.57;;;9.80;99.90;;;;;;5046604;28;20285;-72
2024/01/03 06:18:14;;;;;;;10.60;4.27;;;9.90;99.90;;;;;;5035476;28;20588;-71
2024/01/03 06:20:40;;;;;;;12.57;5.07;;;9.80;99.90;;;;;;5051687;28;20698;-71
2024/01/03 06:23:06;;;;;;;11.27;4.80;;;9.90;99.90;;;;;;5040954;28;20266;-71
2024/01/03 06:25:32;;;;;;;13.60;4.57;;;9.80;99.90;;;;;;5031953;28;20219;-71
2024/01/03 06:27:58;;;;;;;9.30;6.70;;;9.80;99.90;;;;;;5041083;28;20632;-71
2024/01/03 06:30:23;;;;;;;14.30;5.07;;;9.90;99.90;;;;;;5041712;28;20702;-71
2024/01/03 06:32:49;;;;;;;15.07;8.00;;;9.90;99.90;;;;;;5032771;28;20175;-71
2024/01/03 06:35:15;;;;;;;20.20;4.60;;;9.90;99.90;;;;;;5047626;28;20199;-71
2024/01/03 06:37:41;;;;;;;25.33;8.93;;;10.00;99.90;;;;;;5047392;28;20237;-72
2024/01/03 06:40:07;;;;;;;11.57;5.10;;;10.10;99.90;;;;;;5031640;28;20229;-71
2024/01/03 06:42:32;;;;;;;8.50;4.53;;;10.20;99.90;;;;;;5036646;28;20286;-71
2024/01/03 06:44:58;;;;;;;13.40;5.37;;;10.30;99.90;;;;;;5046069;28;20259;-71
2024/01/03 06:47:24;;;;;;;17.60;5.30;;;10.40;99.90;;;;;;5019548;28;20639;-71
2024/01/03 06:49:49;;;;;;;13.77;4.53;;;10.50;99.90;;;;;;5038314;28;20202;-71
2024/01/03 06:52:15;;;;;;;7.70;4.37;;;10.60;99.90;;;;;;5032804;28;20617;-72
2024/01/03 06:54:40;;;;;;;11.60;5.20;;;10.60;99.90;;;;;;5032381;28;20187;-72
2024/01/03 06:57:06;;;;;;;10.03;4.87;;;10.60;99.90;;;;;;5032593;28;20959;-69
2024/01/03 06:59:38;;;;;;;12.93;4.60;;;10.60;99.90;;;;;;5013520;28;20208;-70
2024/01/03 07:02:04;;;;;;;10.20;4.00;;;10.60;99.90;;;;;;5031139;28;20581;-70
2024/01/03 07:04:29;;;;;;;12.13;4.80;;;10.60;99.90;;;;;;5030656;28;20178;-69
2024/01/03 07:06:56;;;;;;;10.60;4.90;;;10.70;99.90;;;;;;5030905;28;20171;-69
2024/01/03 07:09:22;;;;;;;11.40;4.97;;;10.70;99.90;;;;;;5031163;28;20172;-68
2024/01/03 07:11:48;;;;;;;14.17;5.03;;;10.70;99.90;;;;;;5032055;28;20450;-68
2024/01/03 07:14:14;;;;;;;12.63;4.70;;;10.70;99.90;;;;;;5030973;28;20655;-70
2024/01/03 07:16:40;;;;;;;7.60;4.50;;;10.70;99.90;;;;;;5020170;28;20279;-69
2024/01/03 07:19:06;;;;;;;10.63;4.17;;;10.70;99.90;;;;;;5048485;28;20187;-70
2024/01/03 07:21:32;;;;;;;8.40;3.73;;;10.70;99.90;;;;;;5051153;28;20803;-70
2024/01/03 07:23:58;;;;;;;10.43;3.90;;;10.60;99.90;;;;;;5051145;28;20194;-69
2024/01/03 07:26:24;;;;;;;10.43;4.67;;;10.60;99.90;;;;;;5051094;28;20194;-70
2024/01/03 07:28:50;;;;;;;6.50;3.70;;;10.60;99.90;;;;;;5050915;28;20175;-71
2024/01/03 07:31:15;;;;;;;6.93;3.90;;;10.60;99.90;;;;;;5051153;28;20195;-70
2024/01/03 07:33:41;;;;;;;9.03;3.70;;;10.60;99.90;;;;;;5032199;28;20179;-69
2024/01/03 07:36:07;;;;;;;9.13;3.80;;;10.60;99.90;;;;;;5050522;28;20194;-70
2024/01/03 07:38:33;;;;;;;8.27;4.80;;;10.60;99.90;;;;;;5047936;28;20184;-69
2024/01/03 07:40:59;;;;;;;10.27;4.67;;;10.70;99.90;;;;;;5030642;28;20553;-69
2024/01/03 07:43:26;;;;;;;7.00;3.73;;;10.70;99.90;;;;;;5030713;28;20178;-69
2024/01/03 07:45:52;;;;;;;6.77;4.00;;;10.80;99.90;;;;;;5032221;28;20203;-69
2024/01/03 07:48:18;;;;;;;8.13;5.03;;;10.80;99.90;;;;;;5050664;28;20175;-69
2024/01/03 07:50:43;;;;;;;6.40;4.30;;;10.70;99.90;;;;;;5050828;28;20167;-69
2024/01/03 07:53:09;;;;;;;8.67;4.60;;;10.70;99.90;;;;;;5050454;28;20175;-70
2024/01/03 07:55:35;;;;;;;5.37;4.50;;;10.60;99.90;;;;;;5050676;28;20386;-70
2024/01/03 07:58:01;;;;;;;6.50;4.13;;;10.60;99.90;;;;;;5032510;28;20205;-70
2024/01/03 08:00:30;;;;;;;8.90;4.00;;;10.50;99.90;;;;;;5050181;28;20250;-71
2024/01/03 08:02:56;;;;;;;7.63;4.17;;;10.50;99.90;;;;;;5012704;28;20211;-69
2024/01/03 08:05:22;;;;;;;10.17;5.83;;;10.50;99.90;;;;;;5030654;28;20191;-69
2024/01/03 08:07:48;;;;;;;4.97;4.37;;;10.50;99.90;;;;;;5031024;28;20176;-69
2024/01/03 08:10:13;;;;;;;4.63;3.80;;;10.50;99.90;;;;;;5047433;28;20654;-70
2024/01/03 08:12:40;;;;;;;6.93;6.30;;;10.60;99.90;;;;;;5049995;28;20261;-70
2024/01/03 08:15:06;;;;;;;4.83;4.30;;;10.70;99.90;;;;;;5050284;28;20282;-68
2024/01/03 08:17:32;;;;;;;10.03;4.30;;;10.70;99.90;;;;;;5051267;28;20205;-69
2024/01/03 08:19:57;;;;;;;9.90;4.30;;;10.80;99.90;;;;;;5051151;28;20171;-69
2024/01/03 08:22:23;;;;;;;8.37;4.33;;;10.80;99.90;;;;;;5050284;28;20742;-69
2024/01/03 08:24:49;;;;;;;4.80;3.50;;;10.90;99.90;;;;;;5031945;28;20276;-70
2024/01/03 08:27:14;;;;;;;9.13;4.60;;;10.90;99.90;;;;;;5050195;28;20163;-69
2024/01/03 08:29:40;;;;;;;12.47;4.60;;;10.90;99.90;;;;;;5052186;28;20167;-69
2024/01/03 08:32:06;;;;;;;6.67;3.73;;;11.00;99.90;;;;;;5053611;28;20171;-69
2024/01/03 08:34:31;;;;;;;6.60;3.90;;;11.00;99.90;;;;;;5053682;28;20175;-69
2024/01/03 08:36:57;;;;;;;10.47;4.37;;;11.00;99.90;;;;;;5053764;28;20198;-69
2024/01/03 08:39:23;;;;;;;10.30;4.00;;;10.90;99.90;;;;;;5040131;28;20184;-69
2024/01/03 08:41:48;;;;;;;7.87;4.17;;;10.80;99.90;;;;;;5033653;28;20203;-69
2024/01/03 08:44:14;;;;;;;5.77;4.47;;;10.70;99.90;;;;;;5045141;28;20544;-69
2024/01/03 08:46:42;;;;;;;10.27;3.80;;;10.70;99.90;;;;;;5053639;28;20286;-69
2024/01/03 08:49:09;;;;;;;10.20;3.50;;;10.70;99.90;;;;;;5053359;28;20171;-69
2024/01/03 08:51:35;;;;;;;5.63;3.93;;;10.70;99.90;;;;;;5053784;28;20171;-70
2024/01/03 08:54:00;;;;;;;4.07;3.67;;;10.70;99.90;;;;;;5053112;28;20562;-70
2024/01/03 08:56:26;;;;;;;7.20;3.73;;;10.70;99.90;;;;;;5053292;28;20201;-69
2024/01/03 08:58:51;;;;;;;8.73;4.40;;;10.70;99.90;;;;;;5051687;28;20183;-70
2024/01/03 09:01:18;;;;;;;5.33;4.07;;;10.80;99.90;;;;;;5053078;28;20209;-69
2024/01/03 09:03:44;;;;;;;9.37;4.60;;;10.80;99.90;;;;;;5053576;28;20163;-70
2024/01/03 09:06:12;;;;;;;5.40;3.60;;;10.90;99.90;;;;;;5049783;28;20203;-71
2024/01/03 09:08:38;;;;;;;5.27;3.90;;;11.10;99.90;;;;;;5033474;28;20168;-71
2024/01/03 09:11:11;;;;;;;6.17;4.07;;;11.10;99.90;;;;;;5033358;28;20172;-71
2024/01/03 09:13:38;;;;;;;4.50;3.80;;;11.00;99.90;;;;;;5033204;28;20230;-70
2024/01/03 09:16:04;;;;;;;5.07;3.70;;;11.00;99.90;;;;;;5032809;28;20192;-70
2024/01/03 09:18:30;;;;;;;5.80;3.77;;;11.10;99.90;;;;;;5015731;28;20533;-70
2024/01/03 09:20:58;;;;;;;4.47;3.40;;;11.20;99.90;;;;;;5033044;28;20274;-70
2024/01/03 09:23:24;;;;;;;7.07;3.37;;;11.20;99.90;;;;;;5032787;28;20249;-70
2024/01/03 09:25:50;;;;;;;5.47;3.43;;;11.20;99.90;;;;;;5033186;28;20191;-70
2024/01/03 09:28:16;;;;;;;4.07;3.40;;;11.30;99.90;;;;;;5032989;28;20615;-70
2024/01/03 09:30:41;;;;;;;7.00;3.73;;;11.40;99.90;;;;;;5033017;28;20250;-69
2024/01/03 09:33:07;;;;;;;8.33;3.90;;;11.50;99.90;;;;;;5032902;28;20295;-70
2024/01/03 09:35:33;;;;;;;5.07;3.13;;;11.80;99.90;;;;;;5032573;28;20708;-70
2024/01/03 09:37:58;;;;;;;4.50;3.00;;;12.10;99.90;;;;;;5032645;28;20302;-70
2024/01/03 09:40:24;;;;;;;6.33;2.93;;;12.40;99.90;;;;;;5032731;28;20171;-70
2024/01/03 09:42:50;;;;;;;7.10;3.40;;;12.60;99.90;;;;;;5033591;28;20223;-69
2024/01/03 09:45:15;;;;;;;7.33;3.40;;;12.60;99.90;;;;;;5032485;28;20202;-70
2024/01/03 09:47:42;;;;;;;8.90;3.47;;;12.80;99.90;;;;;;5032369;28;20636;-70
2024/01/03 09:50:08;;;;;;;6.97;3.83;;;12.90;99.90;;;;;;5032333;28;20258;-70
2024/01/03 09:52:37;;;;;;;6.13;3.93;;;12.90;99.90;;;;;;5051994;28;20261;-69
2024/01/03 09:55:03;;;;;;;5.40;3.73;;;12.80;99.90;;;;;;5052145;28;20214;-70
2024/01/03 09:57:29;;;;;;;7.87;4.63;;;12.60;99.90;;;;;;5052107;28;20206;-70
2024/01/03 09:59:56;;;;;;;13.27;5.57;;;12.30;99.90;;;;;;5052649;28;20177;-70
2024/01/03 10:02:27;;;;;;;8.40;7.33;;;11.90;99.90;;;;;;5050586;28;20226;-70
2024/01/03 10:04:54;;;;;;;9.53;4.40;;;11.30;99.90;;;;;;5034428;28;20187;-70
2024/01/03 10:07:34;;;;;;;10.83;4.50;;;10.90;99.90;;;;;;5051781;28;20197;-73
2024/01/03 10:10:00;;;;;;;12.43;4.80;;;10.70;99.90;;;;;;5052064;28;20181;-70
2024/01/03 10:12:29;;;;;;;5.00;4.57;;;10.50;99.90;;;;;;5052043;28;20257;-70
2024/01/03 10:14:55;;;;;;;16.53;4.80;;;10.50;99.90;;;;;;5052039;28;20187;-70
2024/01/03 10:17:22;;;;;;;8.67;4.70;;;10.30;99.90;;;;;;5046771;28;20632;-70
2024/01/03 10:19:47;;;;;;;11.83;4.33;;;10.30;99.90;;;;;;5032235;28;20171;-70
2024/01/03 10:22:18;;;;;;;9.90;4.30;;;10.30;99.90;;;;;;5031843;28;20210;-71
2024/01/03 10:24:45;;;;;;;14.27;4.80;;;10.40;99.90;;;;;;5032023;28;20818;-71
2024/01/03 10:27:11;;;;;;;12.33;5.07;;;10.60;99.90;;;;;;5031833;28;20679;-70
2024/01/03 10:29:38;;;;;;;9.63;4.20;;;10.90;99.90;;;;;;5014131;28;20262;-69
2024/01/03 10:32:09;;;;;;;10.97;4.00;;;11.10;99.90;;;;;;5033052;28;20180;-71
2024/01/03 10:34:35;;;;;;;6.70;3.73;;;11.20;99.90;;;;;;5031934;28;20168;-70
2024/01/03 10:37:01;;;;;;;15.20;4.37;;;11.30;99.90;;;;;;5031623;28;20250;-70
2024/01/03 10:39:28;;;;;;;6.17;3.90;;;11.50;99.90;;;;;;5033073;28;20172;-71
2024/01/03 10:41:54;;;;;;;9.07;4.20;;;11.80;99.90;;;;;;5031632;28;20207;-70
2024/01/03 10:44:21;;;;;;;10.57;4.83;;;12.10;99.90;;;;;;5013864;28;20589;-69
2024/01/03 10:46:48;;;;;;;9.57;4.43;;;12.20;99.90;;;;;;5031472;28;20334;-71
2024/01/03 10:49:15;;;;;;;15.60;5.07;;;12.30;99.90;;;;;;5031505;28;20188;-69
2024/01/03 10:51:45;;;;;;;12.23;4.33;;;12.20;99.90;;;;;;5030785;28;20225;-70
2024/01/03 10:54:15;;;;;;;7.27;5.53;;;12.20;99.90;;;;;;5035486;28;20179;-71
2024/01/03 10:56:47;;;;;;;5.93;3.83;;;12.20;99.90;;;;;;5051120;28;20190;-70
2024/01/03 10:59:14;;;;;;;7.67;4.17;;;12.30;99.90;;;;;;5050486;28;20643;-70
2024/01/03 11:01:55;;;;;;;10.47;4.57;;;12.20;99.90;;;;;;5051160;28;20201;-71
2024/01/03 11:04:30;;;;;;;4.83;4.07;;;12.10;99.90;;;;;;5051262;28;20171;-70
2024/01/03 11:07:13;;;;;;;13.17;3.93;;;12.10;99.90;;;;;;5051303;28;20213;-70
2024/01/03 11:09:39;;;;;;;6.97;4.77;;;12.10;99.90;;;;;;5051074;28;20831;-70
2024/01/03 11:12:07;;;;;;;6.73;4.37;;;12.30;99.90;;;;;;5051160;28;20167;-70
2024/01/03 11:14:33;;;;;;;6.37;5.03;;;12.40;99.90;;;;;;5036439;28;20190;-70
2024/01/03 11:16:59;;;;;;;6.07;3.80;;;12.50;99.90;;;;;;5047437;28;20178;-70
2024/01/03 11:19:31;;;;;;;9.20;6.33;;;12.50;99.90;;;;;;5051026;28;20267;-70
2024/01/03 11:22:01;;;;;;;7.33;6.67;;;12.60;99.90;;;;;;5050896;28;20202;-70
2024/01/03 11:24:32;;;;;;;8.67;3.90;;;12.60;99.90;;;;;;5051029;28;20712;-70
2024/01/03 11:27:04;;;;;;;8.57;3.80;;;12.60;99.90;;;;;;5048867;28;20166;-70
2024/01/03 11:29:36;;;;;;;6.87;4.20;;;12.50;99.90;;;;;;5050928;28;20167;-70
2024/01/03 11:32:06;;;;;;;7.80;4.77;;;12.40;99.90;;;;;;5051438;28;20627;-70
2024/01/03 11:34:43;;;;;;;5.23;4.80;;;12.40;99.90;;;;;;5050850;28;20177;-70
2024/01/03 11:37:09;;;;;;;10.37;4.93;;;12.40;99.90;;;;;;5050465;28;20563;-70
2024/01/03 11:39:36;;;;;;;9.03;4.60;;;12.40;99.90;;;;;;5051115;28;20173;-70
2024/01/03 11:42:05;;;;;;;10.83;6.60;;;12.50;99.90;;;;;;5050632;28;20277;-69
2024/01/03 11:44:31;;;;;;;13.77;4.03;;;12.60;99.90;;;;;;5050875;28;20223;-70
2024/01/03 11:47:02;;;;;;;9.07;4.00;;;12.60;99.90;;;;;;5051308;28;20614;-69
2024/01/03 11:49:27;;;;;;;8.27;3.90;;;12.70;99.90;;;;;;5050722;28;20167;-71
2024/01/03 11:51:55;;;;;;;8.20;4.10;;;12.70;99.90;;;;;;5050472;28;20179;-70
2024/01/03 11:54:21;;;;;;;6.23;4.27;;;12.90;99.90;;;;;;5048280;28;20294;-71
2024/01/03 11:56:46;;;;;;;13.83;5.20;;;13.00;99.90;;;;;;5030814;28;20274;-70
2024/01/03 11:59:12;;;;;;;7.03;4.87;;;13.00;99.90;;;;;;5030643;28;20588;-70
2024/01/03 12:01:38;;;;;;;11.03;4.23;;;12.80;99.90;;;;;;5030703;28;20202;-69
2024/01/03 12:04:13;;;;;;;6.33;4.50;;;12.60;99.90;;;;;;5032741;28;20222;-70
2024/01/03 12:06:41;;;;;;;8.93;4.23;;;12.40;99.90;;;;;;5033763;28;20196;-69
2024/01/03 12:09:07;;;;;;;5.57;4.03;;;12.30;99.90;;;;;;5034669;28;20168;-70
2024/01/03 12:11:34;;;;;;;10.20;4.20;;;12.20;99.90;;;;;;5034513;28;20190;-69
2024/01/03 12:14:00;;;;;;;12.93;4.70;;;12.20;99.90;;;;;;5034546;28;20205;-70
2024/01/03 12:16:25;;;;;;;7.50;4.90;;;12.20;99.90;;;;;;5034069;28;20623;-70
2024/01/03 12:18:52;;;;;;;10.23;4.27;;;12.30;99.90;;;;;;5034430;28;20175;-71
2024/01/03 12:21:18;;;;;;;9.47;3.97;;;12.60;99.90;;;;;;5034047;28;20282;-69
2024/01/03 12:23:59;;;;;;;7.00;3.20;;;12.90;99.90;;;;;;5035480;28;20292;-70
2024/01/03 12:26:26;;;;;;;33.90;31.87;;;13.20;99.90;;;;;;5034493;28;20191;-69
2024/01/03 12:28:58;;;;;;;7.43;3.50;;;13.20;99.90;;;;;;5034883;28;20643;-69
2024/01/03 12:31:24;;;;;;;7.60;4.70;;;13.20;99.90;;;;;;5034115;28;20199;-70
2024/01/03 12:33:50;;;;;;;7.63;3.57;;;13.00;99.90;;;;;;5034136;28;20176;-69
2024/01/03 12:36:15;;;;;;;6.17;3.73;;;12.80;99.90;;;;;;5034131;28;20246;-70
2024/01/03 12:38:41;;;;;;;8.73;3.83;;;12.80;99.90;;;;;;5034962;28;20197;-70
2024/01/03 12:41:07;;;;;;;9.20;4.03;;;12.70;99.90;;;;;;5033786;28;20611;-71